Time;durP1;ratioP1;P1;durP2;ratioP2;P2;SDS_P1;SDS_P2;PMS_P1;PMS_P2;Temp;Humidity;BMP_temperature;BMP_pressure;BME280_temperature;BME280_humidity;BME280_pressure;Samples;Min_cycle;Max_cycle;Signal;HPM_P1;HPM_P2
2020/12/16 00:00:41;;;;;;;56.75;28.73;;;;;;;4.05;81.42;100665.03;1743750;82;21159;-77
2020/12/16 00:03:07;;;;;;;53.20;27.52;;;;;;;4.03;81.39;100661.69;1743585;82;22092;-77
2020/12/16 00:05:34;;;;;;;50.03;25.68;;;;;;;4.02;81.37;100658.20;1743505;82;21119;-76
2020/12/16 00:08:00;;;;;;;48.20;24.20;;;;;;;4.03;81.36;100665.64;1743151;82;21127;-77
2020/12/16 00:10:26;;;;;;;42.55;23.73;;;;;;;4.05;81.34;100658.42;1743429;82;21210;-77
2020/12/16 00:12:53;;;;;;;51.50;25.65;;;;;;;4.08;81.33;100663.48;1743364;82;21576;-76
2020/12/16 00:15:19;;;;;;;51.08;26.33;;;;;;;4.14;81.32;100670.06;1743629;82;21200;-77
2020/12/16 00:17:45;;;;;;;47.70;25.97;;;;;;;4.18;81.31;100667.07;1743563;82;21148;-77
2020/12/16 00:20:11;;;;;;;44.95;23.57;;;;;;;4.20;81.31;100666.45;1746185;80;21168;-77
2020/12/16 00:22:39;;;;;;;49.40;26.40;;;;;;;4.23;81.31;100675.44;1736467;81;21156;-77
2020/12/16 00:25:07;;;;;;;44.08;24.67;;;;;;;4.24;81.29;100674.48;1748424;81;21137;-77
2020/12/16 00:27:34;;;;;;;47.38;25.50;;;;;;;4.26;81.27;100675.19;1755070;80;21975;-77
2020/12/16 00:30:00;;;;;;;43.48;25.68;;;;;;;4.25;81.25;100676.17;1751995;81;21612;-77
2020/12/16 00:32:27;;;;;;;48.80;25.80;;;;;;;4.27;81.23;100678.67;1746841;81;21177;-77
2020/12/16 00:34:53;;;;;;;49.98;25.45;;;;;;;4.28;81.21;100677.72;1752446;81;21171;-77
2020/12/16 00:37:19;;;;;;;54.33;29.55;;;;;;;4.27;81.19;100673.39;1756796;81;21144;-77
2020/12/16 00:39:45;;;;;;;50.50;26.15;;;;;;;4.25;81.17;100670.89;1756760;81;21136;-77
2020/12/16 00:42:12;;;;;;;61.92;28.92;;;;;;;4.26;81.14;100681.79;1756204;81;21180;-77
2020/12/16 00:44:38;;;;;;;52.35;25.40;;;;;;;4.26;81.11;100677.83;1756642;81;21619;-77
2020/12/16 00:47:05;;;;;;;53.75;25.10;;;;;;;4.27;81.08;100684.80;1756459;81;21581;-77
2020/12/16 00:49:31;;;;;;;52.70;26.00;;;;;;;4.28;81.06;100683.84;1756612;81;21577;-77
2020/12/16 00:51:58;;;;;;;46.98;25.25;;;;;;;4.32;81.07;100687.92;1756598;81;21192;-77
2020/12/16 00:54:24;;;;;;;49.35;25.62;;;;;;;4.33;81.02;100688.26;1749960;81;21157;-77
2020/12/16 00:56:50;;;;;;;59.77;28.55;;;;;;;4.36;81.03;100692.47;1754362;81;21167;-77
2020/12/16 00:59:17;;;;;;;68.95;31.60;;;;;;;4.35;81.01;100691.63;1756634;81;21425;-77
2020/12/16 01:01:44;;;;;;;70.30;31.70;;;;;;;4.38;81.01;100696.66;1756672;81;21155;-77
2020/12/16 01:04:11;;;;;;;68.70;30.97;;;;;;;4.39;81.02;100695.70;1756428;80;21160;-77
2020/12/16 01:06:37;;;;;;;62.70;31.62;;;;;;;4.39;81.01;100699.67;1756719;81;21140;-77
2020/12/16 01:09:06;;;;;;;61.40;30.85;;;;;;;4.38;80.99;100708.55;1750841;81;21148;-78
2020/12/16 01:11:36;;;;;;;59.53;30.68;;;;;;;4.37;81.02;100709.97;1724506;83;21664;-77
2020/12/16 01:14:04;;;;;;;65.85;31.87;;;;;;;4.33;81.00;100715.98;1725067;83;21649;-77
2020/12/16 01:16:36;;;;;;;66.00;34.75;;;;;;;4.28;80.98;100716.00;1724946;83;21175;-77
2020/12/16 01:19:07;;;;;;;62.62;31.57;;;;;;;4.26;80.95;100720.06;1724332;82;21225;-77
2020/12/16 01:21:37;;;;;;;60.60;31.97;;;;;;;4.25;80.93;100721.05;1725150;81;21168;-77
2020/12/16 01:24:05;;;;;;;64.60;32.05;;;;;;;4.24;80.92;100728.59;1724840;81;21215;-76
2020/12/16 01:26:44;;;;;;;56.73;29.52;;;;;;;4.23;80.91;100727.39;1724834;81;21216;-77
2020/12/16 01:29:10;;;;;;;58.23;30.45;;;;;;;4.21;80.90;100726.69;1751674;80;21316;-76
2020/12/16 01:31:42;;;;;;;75.57;35.10;;;;;;;4.16;80.90;100724.40;1756656;81;21195;-76
2020/12/16 01:34:09;;;;;;;90.35;38.08;;;;;;;4.15;80.88;100731.95;1693478;84;21202;-77
2020/12/16 01:36:42;;;;;;;97.85;42.73;;;;;;;4.13;80.90;100724.64;1704614;84;21208;-77
2020/12/16 01:39:10;;;;;;;92.65;40.03;;;;;;;4.12;80.94;100732.70;1678745;84;21181;-77
2020/12/16 01:41:43;;;;;;;83.78;38.15;;;;;;;4.09;80.93;100736.39;1697688;84;21215;-77
2020/12/16 01:44:18;;;;;;;70.47;34.15;;;;;;;4.09;80.99;100735.08;1695691;84;21209;-77
2020/12/16 01:46:51;;;;;;;70.20;35.50;;;;;;;4.08;81.01;100740.02;1710343;82;21592;-77
2020/12/16 01:49:19;;;;;;;58.83;32.00;;;;;;;4.07;81.05;100740.97;1710473;83;21164;-77
2020/12/16 01:51:46;;;;;;;60.78;32.70;;;;;;;4.09;81.08;100744.31;1726497;83;21184;-77
2020/12/16 01:54:14;;;;;;;68.62;34.95;;;;;;;4.08;81.09;100738.70;1699313;83;21215;-76
2020/12/16 01:56:41;;;;;;;75.60;35.68;;;;;;;4.08;81.10;100754.53;1726375;83;21151;-76
2020/12/16 01:59:10;;;;;;;104.03;41.28;;;;;;;4.09;81.09;100756.19;1726348;83;21187;-76
2020/12/16 02:01:36;;;;;;;78.92;35.68;;;;;;;4.09;81.10;100748.75;1726400;83;21624;-76
2020/12/16 02:04:02;;;;;;;67.32;31.93;;;;;;;4.07;81.08;100755.95;1699500;83;21191;-76
2020/12/16 02:06:33;;;;;;;66.22;31.50;;;;;;;4.03;81.09;100750.92;1726483;83;22177;-76
2020/12/16 02:09:07;;;;;;;61.63;30.43;;;;;;;4.02;81.09;100752.34;1725060;83;21640;-77
2020/12/16 02:11:34;;;;;;;57.80;29.15;;;;;;;4.02;81.06;100757.16;1723258;82;21132;-77
2020/12/16 02:14:03;;;;;;;48.85;25.43;;;;;;;4.05;81.08;100758.70;1723210;82;21180;-77
2020/12/16 02:16:29;;;;;;;51.30;26.55;;;;;;;4.09;81.07;100760.14;1723414;83;21172;-77
2020/12/16 02:18:55;;;;;;;47.30;24.90;;;;;;;4.14;81.08;100760.64;1723227;83;22055;-77
2020/12/16 02:21:22;;;;;;;42.85;24.05;;;;;;;4.17;81.08;100747.67;1722898;83;21184;-77
2020/12/16 02:23:49;;;;;;;41.40;23.05;;;;;;;4.20;81.10;100760.15;1723320;83;21168;-77
2020/12/16 02:26:15;;;;;;;46.05;24.85;;;;;;;4.19;81.10;100755.83;1722298;82;21136;-77
2020/12/16 02:28:42;;;;;;;46.02;25.95;;;;;;;4.20;81.12;100765.43;1714842;83;21208;-77
2020/12/16 02:31:10;;;;;;;45.58;24.82;;;;;;;4.23;81.14;100769.14;1714885;83;21673;-77
2020/12/16 02:33:36;;;;;;;42.80;24.75;;;;;;;4.24;81.13;100758.95;1714592;83;21219;-77
2020/12/16 02:36:03;;;;;;;45.73;23.73;;;;;;;4.25;81.14;100765.08;1722420;83;21146;-77
2020/12/16 02:38:29;;;;;;;42.55;22.65;;;;;;;4.24;81.13;100762.91;1697630;83;21192;-77
2020/12/16 02:40:55;;;;;;;42.30;21.45;;;;;;;4.25;81.13;100763.28;1696528;84;21187;-77
2020/12/16 02:43:21;;;;;;;37.35;20.88;;;;;;;4.28;81.12;100770.11;1694823;83;21210;-77
2020/12/16 02:45:48;;;;;;;35.17;19.27;;;;;;;4.28;81.14;100768.31;1722307;82;21124;-77
2020/12/16 02:48:14;;;;;;;36.17;20.55;;;;;;;4.30;81.14;100770.34;1706522;84;21156;-77
2020/12/16 02:50:41;;;;;;;35.35;19.92;;;;;;;4.34;81.15;100769.14;1693319;84;21226;-77
2020/12/16 02:53:07;;;;;;;36.90;20.05;;;;;;;4.39;81.15;100776.23;1706572;84;21140;-77
2020/12/16 02:55:33;;;;;;;35.68;18.87;;;;;;;4.42;81.16;100779.95;1693016;84;21329;-77
2020/12/16 02:58:00;;;;;;;43.80;21.45;;;;;;;4.45;81.18;100787.62;1707668;82;21175;-77
2020/12/16 03:00:26;;;;;;;42.00;20.72;;;;;;;4.47;81.18;100785.69;1714204;83;21208;-77
2020/12/16 03:02:52;;;;;;;37.88;19.98;;;;;;;4.50;81.20;100789.41;1712021;83;21163;-77
2020/12/16 03:05:19;;;;;;;36.42;20.27;;;;;;;4.52;81.24;100792.78;1707700;83;21613;-77
2020/12/16 03:07:45;;;;;;;37.73;20.40;;;;;;;4.54;81.24;100790.84;1707523;84;21992;-77
2020/12/16 03:10:11;;;;;;;34.05;19.42;;;;;;;4.55;81.24;100790.37;1707381;82;21184;-77
2020/12/16 03:12:37;;;;;;;33.83;18.87;;;;;;;4.56;81.23;100795.17;1707529;82;21139;-77
2020/12/16 03:15:04;;;;;;;34.18;19.05;;;;;;;4.55;81.22;100793.01;1713499;82;21156;-77
2020/12/16 03:17:30;;;;;;;33.10;18.02;;;;;;;4.53;81.23;100788.34;1714363;83;21204;-77
2020/12/16 03:19:56;;;;;;;35.00;18.23;;;;;;;4.53;81.24;100789.19;1722420;83;21612;-77
2020/12/16 03:22:22;;;;;;;33.02;17.70;;;;;;;4.53;81.25;100791.83;1706447;84;21184;-77
2020/12/16 03:24:49;;;;;;;36.48;18.15;;;;;;;4.55;81.25;100790.37;1722490;83;21182;-77
2020/12/16 03:27:15;;;;;;;37.45;19.73;;;;;;;4.56;81.29;100793.37;1706400;83;21606;-77
2020/12/16 03:29:41;;;;;;;32.60;17.95;;;;;;;4.59;81.31;100798.89;1722650;83;21163;-77
2020/12/16 03:32:08;;;;;;;32.05;18.75;;;;;;;4.57;81.35;100800.83;1706670;84;22022;-77
2020/12/16 03:34:34;;;;;;;32.20;18.45;;;;;;;4.56;81.37;100799.14;1722378;83;21159;-77
2020/12/16 03:37:00;;;;;;;33.02;19.73;;;;;;;4.55;81.42;100802.25;1702616;83;21164;-77
2020/12/16 03:39:27;;;;;;;37.98;19.77;;;;;;;4.57;81.45;100806.11;1696533;84;21186;-77
2020/12/16 03:41:53;;;;;;;35.23;19.98;;;;;;;4.57;81.46;100801.67;1694015;84;21163;-77
2020/12/16 03:44:19;;;;;;;34.27;19.23;;;;;;;4.58;81.50;100802.48;1722234;83;22216;-77
2020/12/16 03:46:52;;;;;;;36.40;19.30;;;;;;;4.56;81.50;100810.55;1706347;84;21196;-77
2020/12/16 03:49:19;;;;;;;32.88;16.97;;;;;;;4.57;81.52;100810.06;1722207;82;21556;-77
2020/12/16 03:51:47;;;;;;;31.77;17.73;;;;;;;4.58;81.51;100812.56;1706069;84;21605;-77
2020/12/16 03:54:14;;;;;;;32.30;16.17;;;;;;;4.60;81.52;100811.98;1696409;84;21180;-77
2020/12/16 03:56:40;;;;;;;34.38;17.10;;;;;;;4.64;81.54;100815.22;1704617;84;21204;-77
2020/12/16 03:59:06;;;;;;;31.23;17.10;;;;;;;4.68;81.57;100815.34;1704858;84;21493;-77
2020/12/16 04:01:33;;;;;;;31.68;16.15;;;;;;;4.73;81.57;100821.08;1709341;83;21152;-77
2020/12/16 04:03:59;;;;;;;29.77;17.10;;;;;;;4.75;81.59;100822.63;1722323;83;21605;-77
2020/12/16 04:06:26;;;;;;;26.55;15.90;;;;;;;4.76;81.61;100820.83;1657633;84;21213;-76
2020/12/16 04:08:52;;;;;;;31.17;17.52;;;;;;;4.79;81.64;100824.07;1722485;83;21198;-77
2020/12/16 04:11:18;;;;;;;33.00;17.52;;;;;;;4.80;81.65;100826.23;1698714;84;21196;-77
2020/12/16 04:13:44;;;;;;;31.00;19.05;;;;;;;4.81;81.66;100827.45;1696542;83;21557;-76
2020/12/16 04:16:14;;;;;;;29.50;18.00;;;;;;;4.82;81.67;100820.36;1704827;84;21767;-77
2020/12/16 04:18:40;;;;;;;31.55;17.90;;;;;;;4.82;81.69;100820.36;1704480;83;21219;-76
2020/12/16 04:21:09;;;;;;;32.63;16.48;;;;;;;4.82;81.67;100817.72;1707679;83;21557;-76
2020/12/16 04:23:36;;;;;;;30.80;16.30;;;;;;;4.82;81.69;100818.53;1707858;83;21168;-77
2020/12/16 04:26:03;;;;;;;30.32;16.15;;;;;;;4.82;81.67;100813.25;1707779;83;21222;-77
2020/12/16 04:28:29;;;;;;;34.25;17.40;;;;;;;4.83;81.67;100822.02;1721377;81;21215;-77
2020/12/16 04:30:55;;;;;;;34.67;16.70;;;;;;;4.85;81.68;100820.11;1726299;83;21200;-77
2020/12/16 04:33:22;;;;;;;29.52;16.40;;;;;;;4.87;81.67;100823.46;1726336;82;21184;-77
2020/12/16 04:35:48;;;;;;;34.15;18.12;;;;;;;4.89;81.67;100828.97;1725861;83;21223;-77
2020/12/16 04:38:14;;;;;;;34.18;18.85;;;;;;;4.92;81.67;100835.84;1723153;83;21208;-77
2020/12/16 04:40:41;;;;;;;37.95;19.25;;;;;;;4.94;81.69;100829.94;1723181;83;21160;-77
2020/12/16 04:43:11;;;;;;;36.75;19.45;;;;;;;4.97;81.68;100838.93;1723066;83;21199;-77
2020/12/16 04:45:38;;;;;;;29.70;17.92;;;;;;;4.97;81.69;100837.61;1722052;83;21215;-77
2020/12/16 04:48:05;;;;;;;37.30;19.50;;;;;;;4.98;81.67;100835.34;1723181;83;21180;-77
2020/12/16 04:50:31;;;;;;;39.67;20.57;;;;;;;4.97;81.68;100841.09;1723146;83;21629;-77
2020/12/16 04:53:04;;;;;;;36.20;19.82;;;;;;;4.96;81.69;100843.88;1723110;83;21136;-77
2020/12/16 04:55:31;;;;;;;32.93;17.73;;;;;;;4.97;81.68;100850.83;1723193;83;21651;-77
2020/12/16 04:57:57;;;;;;;31.60;16.85;;;;;;;4.98;81.66;100851.19;1722976;83;21192;-77
2020/12/16 05:00:24;;;;;;;29.35;16.42;;;;;;;4.99;81.66;100851.56;1671028;83;21208;-77
2020/12/16 05:02:54;;;;;;;29.27;16.70;;;;;;;5.01;81.65;100844.33;1722850;83;21187;-77
2020/12/16 05:05:20;;;;;;;32.23;16.55;;;;;;;5.04;81.64;100850.69;1724965;83;21223;-77
2020/12/16 05:07:49;;;;;;;33.30;17.77;;;;;;;5.06;81.63;100855.39;1726338;82;21171;-76
2020/12/16 05:10:18;;;;;;;33.35;18.50;;;;;;;5.09;81.64;100857.78;1726012;83;21203;-77
2020/12/16 05:12:45;;;;;;;33.53;18.77;;;;;;;5.11;81.62;100855.84;1724402;83;21715;-77
2020/12/16 05:15:23;;;;;;;33.78;18.70;;;;;;;5.12;81.62;100859.33;1725914;82;21163;-77
2020/12/16 05:18:21;;;;;;;36.55;20.48;;;;;;;5.13;81.65;100865.83;1726375;82;21185;-77
2020/12/16 05:20:56;;;;;;;33.23;19.67;;;;;;;5.13;81.66;100859.70;1726309;82;21175;-77
2020/12/16 05:23:29;;;;;;;36.25;20.23;;;;;;;5.14;81.65;100862.20;1725812;82;22155;-77
2020/12/16 05:26:04;;;;;;;34.53;19.42;;;;;;;5.15;81.62;100867.85;1725814;82;21168;-77
2020/12/16 05:28:34;;;;;;;45.17;21.25;;;;;;;5.15;81.60;100877.11;1724088;82;21199;-77
2020/12/16 05:31:06;;;;;;;37.15;18.70;;;;;;;5.16;81.61;100881.44;1744754;82;21207;-77
2020/12/16 05:33:43;;;;;;;34.53;18.60;;;;;;;5.18;81.57;100874.69;1780654;80;21139;-77
2020/12/16 05:36:09;;;;;;;33.13;17.95;;;;;;;5.19;81.56;100879.87;1780445;80;21188;-77
2020/12/16 05:38:53;;;;;;;32.35;16.20;;;;;;;5.20;81.55;100886.84;1780629;80;21148;-77
2020/12/16 05:41:30;;;;;;;34.63;19.37;;;;;;;5.22;81.54;100890.19;1780606;80;21669;-77
2020/12/16 05:44:19;;;;;;;32.67;18.27;;;;;;;5.23;81.54;100897.16;1780492;80;21149;-76
2020/12/16 05:46:50;;;;;;;36.95;21.07;;;;;;;5.25;81.54;100896.55;1748354;80;21144;-76
2020/12/16 05:49:25;;;;;;;35.68;20.57;;;;;;;5.27;81.56;100899.92;1748139;81;21227;-77
2020/12/16 05:52:02;;;;;;;35.63;20.75;;;;;;;5.26;81.57;100895.59;1779908;80;21239;-77
2020/12/16 05:54:28;;;;;;;37.88;21.73;;;;;;;5.27;81.58;100898.61;1748445;81;21609;-77
2020/12/16 05:57:24;;;;;;;38.92;21.65;;;;;;;5.26;81.57;100902.20;1748407;82;21633;-77
2020/12/16 06:00:12;;;;;;;37.20;21.60;;;;;;;5.25;81.57;100903.63;1747547;81;21155;-77
2020/12/16 06:02:40;;;;;;;41.85;22.17;;;;;;;5.25;81.57;100897.87;1747903;81;21145;-77
2020/12/16 06:05:13;;;;;;;37.60;20.80;;;;;;;5.23;81.55;100893.68;1780471;79;21156;-77
2020/12/16 06:07:45;;;;;;;39.00;22.55;;;;;;;5.24;81.55;100898.02;1748271;81;21125;-77
2020/12/16 06:10:11;;;;;;;48.30;23.60;;;;;;;5.22;81.53;100902.09;1780213;80;21195;-77
2020/12/16 06:12:39;;;;;;;47.13;21.55;;;;;;;5.23;81.53;100905.09;1748409;82;21555;-77
2020/12/16 06:15:10;;;;;;;42.95;21.73;;;;;;;5.24;81.53;100909.40;1748230;81;22034;-77
2020/12/16 06:17:48;;;;;;;37.35;20.43;;;;;;;5.26;81.53;100907.49;1759735;80;21183;-77
2020/12/16 06:20:18;;;;;;;34.45;19.87;;;;;;;5.29;81.52;100903.75;1747356;81;21607;-77
2020/12/16 06:22:48;;;;;;;40.17;21.42;;;;;;;5.31;81.55;100907.13;1748227;81;21191;-77
2020/12/16 06:25:16;;;;;;;52.35;27.05;;;;;;;5.33;81.55;100907.35;1780419;80;21148;-77
2020/12/16 06:27:48;;;;;;;39.88;21.80;;;;;;;5.33;81.55;100910.00;1776935;78;21673;-77
2020/12/16 06:30:28;;;;;;;45.30;22.15;;;;;;;5.34;81.58;100911.69;1756548;81;21133;-77
2020/12/16 06:33:21;;;;;;;50.90;22.65;;;;;;;5.33;81.57;100913.97;1756745;81;21600;-77
2020/12/16 06:35:47;;;;;;;42.70;22.77;;;;;;;5.34;81.58;100920.95;1737011;81;21227;-77
2020/12/16 06:38:21;;;;;;;42.53;22.58;;;;;;;5.35;81.58;100924.41;1756565;81;21570;-77
2020/12/16 06:40:52;;;;;;;41.20;22.87;;;;;;;5.34;81.59;100939.45;1756287;81;22067;-77
2020/12/16 06:43:37;;;;;;;40.03;22.87;;;;;;;5.33;81.60;100953.63;1756686;80;21632;-77
2020/12/16 06:46:25;;;;;;;35.98;20.55;;;;;;;5.32;81.58;100953.27;1748473;81;21140;-77
2020/12/16 06:48:51;;;;;;;42.40;22.35;;;;;;;5.33;81.57;100958.92;1724949;83;21191;-77
2020/12/16 06:51:22;;;;;;;38.80;20.57;;;;;;;5.34;81.56;100960.61;1729216;81;21605;-77
2020/12/16 06:53:51;;;;;;;34.45;20.30;;;;;;;5.33;81.56;100957.59;1724457;82;21219;-77
2020/12/16 06:56:20;;;;;;;39.03;21.07;;;;;;;5.36;81.57;100961.31;1753535;81;21163;-77
2020/12/16 06:58:46;;;;;;;36.77;21.97;;;;;;;5.39;81.60;100963.71;1743650;81;21144;-77
2020/12/16 07:01:14;;;;;;;41.23;22.58;;;;;;;5.39;81.62;100969.00;1727712;81;21495;-78
2020/12/16 07:03:40;;;;;;;41.98;22.25;;;;;;;5.41;81.62;100971.53;1756616;81;21159;-76
2020/12/16 07:09:24;;;;;;;41.73;23.15;;;;;;;5.46;81.62;100979.45;1850171;77;22740;-76
2020/12/16 07:11:55;;;;;;;47.20;27.65;;;;;;;5.40;81.61;100979.95;1822727;78;21131;-76
2020/12/16 07:14:25;;;;;;;41.10;23.80;;;;;;;5.40;81.62;100994.97;1824064;78;22177;-76
2020/12/16 07:16:51;;;;;;;38.67;22.00;;;;;;;5.39;81.61;100987.52;1823878;78;21179;-76
2020/12/16 07:19:28;;;;;;;42.98;21.65;;;;;;;5.39;81.61;100996.77;1824000;78;21195;-77
2020/12/16 07:21:57;;;;;;;38.65;21.35;;;;;;;5.40;81.57;100999.78;1824049;78;21127;-76
2020/12/16 07:24:24;;;;;;;34.70;19.77;;;;;;;5.40;81.58;101007.72;1824503;78;21564;-76
2020/12/16 07:26:55;;;;;;;37.45;19.82;;;;;;;5.40;81.57;101007.72;1820506;78;21591;-76
2020/12/16 07:29:33;;;;;;;39.03;21.27;;;;;;;5.40;81.58;101003.75;1791322;80;21619;-76
2020/12/16 07:32:06;;;;;;;39.08;21.97;;;;;;;5.42;81.61;101011.06;1791528;80;21123;-76
2020/12/16 07:34:44;;;;;;;58.40;30.85;;;;;;;5.42;81.60;101012.39;1790938;79;21186;-77
2020/12/16 07:37:10;;;;;;;48.10;27.52;;;;;;;5.45;81.60;101009.50;1807754;78;21628;-76
2020/12/16 07:39:49;;;;;;;47.73;30.08;;;;;;;5.47;81.60;101012.03;1824035;78;21167;-76
2020/12/16 07:42:26;;;;;;;42.05;23.98;;;;;;;5.47;81.60;101010.71;1824001;78;21616;-76
2020/12/16 07:44:57;;;;;;;40.08;21.77;;;;;;;5.46;81.61;101014.31;1823977;78;21615;-76
2020/12/16 07:47:23;;;;;;;40.10;21.82;;;;;;;5.47;81.57;101014.20;1802320;78;21156;-76
2020/12/16 07:49:49;;;;;;;36.60;21.30;;;;;;;5.48;81.57;101015.89;1810231;78;21175;-76
2020/12/16 07:52:16;;;;;;;38.28;20.72;;;;;;;5.49;81.57;101015.38;1792808;78;21191;-77
2020/12/16 07:54:42;;;;;;;36.70;20.43;;;;;;;5.50;81.58;101021.89;1798156;78;21176;-77
2020/12/16 07:57:09;;;;;;;37.65;20.62;;;;;;;5.52;81.55;101014.66;1761463;78;21605;-77
2020/12/16 07:59:36;;;;;;;37.80;21.55;;;;;;;5.56;81.56;101024.52;1795383;78;21218;-77
2020/12/16 08:02:13;;;;;;;46.88;25.75;;;;;;;5.59;81.58;101024.77;1792185;78;21153;-77
2020/12/16 08:04:42;;;;;;;39.95;22.58;;;;;;;5.62;81.56;101028.49;1791854;78;22188;-77
2020/12/16 08:07:15;;;;;;;51.63;33.80;;;;;;;5.63;81.56;101022.24;1790229;78;21189;-76
2020/12/16 08:10:05;;;;;;;45.15;27.42;;;;;;;5.64;81.58;101027.88;1784727;78;21242;-76
2020/12/16 08:12:36;;;;;;;44.20;25.77;;;;;;;5.66;81.58;101032.58;1785368;78;21124;-76
2020/12/16 08:15:12;;;;;;;50.78;30.97;;;;;;;5.68;81.59;101035.92;1787147;78;21178;-76
2020/12/16 08:17:41;;;;;;;53.60;26.97;;;;;;;5.69;81.56;101041.59;1789864;78;21195;-76
2020/12/16 08:20:12;;;;;;;40.48;23.92;;;;;;;5.70;81.56;101042.77;1785615;78;21170;-76
2020/12/16 08:22:39;;;;;;;37.73;23.52;;;;;;;5.74;81.55;101043.36;1785066;78;21151;-76
2020/12/16 08:25:10;;;;;;;40.23;22.40;;;;;;;5.74;81.56;101039.40;1788182;78;21186;-76
2020/12/16 08:27:38;;;;;;;41.13;22.65;;;;;;;5.76;81.54;101040.98;1788061;78;21705;-76
2020/12/16 08:30:06;;;;;;;41.63;22.75;;;;;;;5.78;81.56;101039.03;1785668;78;21199;-76
2020/12/16 08:32:37;;;;;;;39.67;22.90;;;;;;;5.79;81.55;101050.47;1786236;78;21166;-75
2020/12/16 08:35:04;;;;;;;60.00;29.30;;;;;;;5.81;81.57;101051.17;1790066;78;21145;-75
2020/12/16 08:37:31;;;;;;;52.73;29.50;;;;;;;5.83;81.58;101059.38;1757915;78;21143;-75
2020/12/16 08:39:57;;;;;;;52.25;27.35;;;;;;;5.85;81.56;101059.23;1759901;79;21568;-75
2020/12/16 08:42:24;;;;;;;47.50;29.10;;;;;;;5.86;81.58;101061.80;1758413;78;21213;-76
2020/12/16 08:44:52;;;;;;;54.15;30.45;;;;;;;5.87;81.59;101060.00;1783602;78;21176;-75
2020/12/16 08:47:26;;;;;;;54.73;30.97;;;;;;;5.88;81.56;101068.27;1756310;78;21212;-77
2020/12/16 08:49:52;;;;;;;45.88;24.52;;;;;;;5.88;81.57;101077.53;1786223;78;21155;-77
2020/12/16 08:52:19;;;;;;;44.50;25.08;;;;;;;5.88;81.56;101076.22;1788739;78;21128;-76
2020/12/16 08:54:45;;;;;;;58.15;27.13;;;;;;;5.88;81.54;101085.00;1783688;78;21153;-76
2020/12/16 08:57:12;;;;;;;49.77;25.35;;;;;;;5.91;81.52;101082.11;1791489;78;22502;-77
2020/12/16 08:59:38;;;;;;;78.78;34.40;;;;;;;5.92;81.51;101086.92;1783835;78;21170;-76
2020/12/16 09:02:08;;;;;;;85.05;43.80;;;;;;;5.92;81.52;101085.59;1791190;78;21173;-75
2020/12/16 09:04:40;;;;;;;118.90;60.33;;;;;;;5.94;81.52;101092.95;1787467;78;21184;-76
2020/12/16 09:07:15;;;;;;;92.50;48.65;;;;;;;5.94;81.52;101096.92;1786746;78;21984;-76
2020/12/16 09:09:50;;;;;;;120.70;58.50;;;;;;;5.94;81.51;101099.09;1795019;78;21621;-77
2020/12/16 09:12:19;;;;;;;106.00;60.28;;;;;;;5.96;81.52;101099.80;1798817;78;21147;-77
2020/12/16 09:14:52;;;;;;;49.60;29.67;;;;;;;5.96;81.49;101106.89;1795599;78;21572;-77
2020/12/16 09:17:22;;;;;;;55.25;30.52;;;;;;;5.97;81.51;101105.94;1798597;78;21144;-76
2020/12/16 09:19:48;;;;;;;54.73;28.62;;;;;;;5.97;81.50;101109.43;1763172;79;22076;-76
2020/12/16 09:22:25;;;;;;;120.75;66.30;;;;;;;5.99;81.50;101105.31;1734224;81;21204;-75
2020/12/16 09:24:53;;;;;;;83.37;49.15;;;;;;;6.00;81.46;101108.33;1738920;80;21139;-77
2020/12/16 09:27:20;;;;;;;68.22;38.63;;;;;;;6.04;81.46;101109.77;1763229;79;21253;-77
2020/12/16 09:29:47;;;;;;;61.80;35.08;;;;;;;6.07;81.47;101112.64;1743424;79;21133;-76
2020/12/16 09:32:20;;;;;;;59.13;31.60;;;;;;;6.09;81.48;101114.20;1745196;81;21201;-76
2020/12/16 09:34:51;;;;;;;53.87;28.73;;;;;;;6.11;81.50;101109.64;1741902;81;21186;-75
2020/12/16 09:37:21;;;;;;;69.85;38.42;;;;;;;6.11;81.48;101112.29;1764547;79;21170;-77
2020/12/16 09:39:48;;;;;;;76.20;37.65;;;;;;;6.12;81.48;101116.62;1734424;81;21601;-76
2020/12/16 09:42:16;;;;;;;119.20;53.42;;;;;;;6.12;81.48;101114.45;1760627;79;21118;-77
2020/12/16 09:44:43;;;;;;;100.40;47.40;;;;;;;6.12;81.49;101113.98;1731617;82;21630;-77
2020/12/16 09:47:19;;;;;;;72.22;35.50;;;;;;;6.13;81.47;101120.09;1746441;81;21655;-77
2020/12/16 09:50:00;;;;;;;97.47;46.73;;;;;;;6.14;81.48;101125.75;1758324;81;21168;-77
2020/12/16 09:52:29;;;;;;;66.95;34.78;;;;;;;6.16;81.47;101120.68;1742846;81;21784;-77
2020/12/16 09:54:56;;;;;;;49.00;28.57;;;;;;;6.18;81.46;101126.72;1746814;81;21152;-76
2020/12/16 09:57:23;;;;;;;43.95;23.18;;;;;;;6.19;81.45;101131.05;1737845;82;21472;-77
2020/12/16 09:59:51;;;;;;;47.15;25.95;;;;;;;6.20;81.44;101126.09;1771968;79;21159;-77
2020/12/16 10:02:18;;;;;;;48.58;25.60;;;;;;;6.21;81.45;101122.49;1775944;80;21156;-76
2020/12/16 10:04:44;;;;;;;50.23;27.52;;;;;;;6.21;81.46;101121.16;1758527;80;21168;-76
2020/12/16 10:07:11;;;;;;;50.65;29.48;;;;;;;6.22;81.47;101121.53;1737931;81;21254;-76
2020/12/16 10:09:39;;;;;;;50.88;28.23;;;;;;;6.24;81.46;101117.42;1775852;80;21239;-77
2020/12/16 10:12:06;;;;;;;57.13;29.50;;;;;;;6.26;81.48;101122.13;1747214;80;21627;-77
2020/12/16 10:14:32;;;;;;;59.13;29.42;;;;;;;6.27;81.44;101115.36;1776174;79;21613;-77
2020/12/16 10:16:58;;;;;;;59.75;30.20;;;;;;;6.28;81.45;101109.11;1756182;80;21141;-77
2020/12/16 10:19:24;;;;;;;57.20;28.20;;;;;;;6.29;81.44;101109.95;1722955;82;21156;-77
2020/12/16 10:21:51;;;;;;;60.17;31.30;;;;;;;6.33;81.43;101110.88;1742142;80;21195;-78
2020/12/16 10:24:17;;;;;;;54.38;27.35;;;;;;;6.35;81.44;101112.09;1771716;80;21267;-78
2020/12/16 10:26:47;;;;;;;57.33;28.35;;;;;;;6.36;81.44;101109.33;1754730;81;21136;-77
2020/12/16 10:29:16;;;;;;;63.15;30.35;;;;;;;6.38;81.45;101111.36;1744369;81;21156;-76
2020/12/16 10:31:51;;;;;;;60.92;30.60;;;;;;;6.43;81.45;101110.52;1750298;80;21219;-77
2020/12/16 10:34:17;;;;;;;55.38;29.48;;;;;;;6.46;81.47;101107.61;1767686;80;21162;-77
2020/12/16 10:36:44;;;;;;;56.90;28.77;;;;;;;6.47;81.48;101103.97;1751133;81;21192;-77
2020/12/16 10:39:10;;;;;;;49.38;28.27;;;;;;;6.48;81.48;101105.66;1751708;80;21219;-77
2020/12/16 10:41:36;;;;;;;49.95;28.45;;;;;;;6.50;81.47;101106.39;1778680;80;21239;-77
2020/12/16 10:44:02;;;;;;;55.73;30.50;;;;;;;6.50;81.48;101107.72;1774358;80;21611;-77
2020/12/16 10:46:30;;;;;;;50.40;28.92;;;;;;;6.52;81.46;101101.80;1741448;82;21180;-77
2020/12/16 10:48:56;;;;;;;62.62;31.45;;;;;;;6.54;81.47;101111.77;1741814;82;21173;-77
2020/12/16 10:51:28;;;;;;;52.33;29.18;;;;;;;6.54;81.46;101107.80;1752656;81;21172;-77
2020/12/16 10:53:54;;;;;;;63.55;31.82;;;;;;;6.57;81.46;101107.20;1741335;81;21194;-79
2020/12/16 10:56:20;;;;;;;57.43;30.92;;;;;;;6.60;81.46;101110.92;1747296;81;21187;-75
2020/12/16 10:58:48;;;;;;;51.30;27.87;;;;;;;6.63;81.46;101110.18;1729566;81;21162;-76
2020/12/16 11:01:15;;;;;;;59.08;31.05;;;;;;;6.67;81.45;101114.27;1736887;80;21135;-76
2020/12/16 11:03:41;;;;;;;55.08;30.20;;;;;;;6.69;81.43;101114.12;1729168;81;21181;-78
2020/12/16 11:06:09;;;;;;;65.35;36.03;;;;;;;6.70;81.46;101115.81;1740438;81;21659;-77
2020/12/16 11:08:35;;;;;;;55.15;30.23;;;;;;;6.74;81.47;101113.27;1732147;81;21604;-78
2020/12/16 11:11:01;;;;;;;75.65;40.17;;;;;;;6.74;81.49;101110.61;1724154;82;21207;-77
2020/12/16 11:13:29;;;;;;;78.97;41.60;;;;;;;6.75;81.49;101124.23;1724175;82;21196;-78
2020/12/16 11:15:55;;;;;;;73.50;37.75;;;;;;;6.77;81.47;101113.00;1732214;81;21598;-78
2020/12/16 11:18:21;;;;;;;66.77;36.42;;;;;;;6.78;81.49;101114.70;1719767;82;21636;-77
2020/12/16 11:20:47;;;;;;;65.97;33.60;;;;;;;6.78;81.48;101111.56;1725919;82;21137;-77
2020/12/16 11:23:14;;;;;;;60.33;33.73;;;;;;;6.76;81.43;101109.51;1719344;82;21762;-77
2020/12/16 11:25:40;;;;;;;61.58;32.38;;;;;;;6.76;81.43;101108.66;1724746;82;21223;-77
2020/12/16 11:28:06;;;;;;;62.35;31.20;;;;;;;6.76;81.42;101113.48;1720166;82;21207;-77